createdAt,value
2022-11-04T00:00:01.639Z,10.03
2022-11-04T00:04:02.481Z,9.00
2022-11-04T00:08:15.033Z,8.60
2022-11-04T00:12:29.808Z,9.30
2022-11-04T00:16:42.410Z,8.90
2022-11-04T00:20:54.956Z,9.10
2022-11-04T00:25:07.512Z,8.70
2022-11-04T00:29:10.175Z,8.70
2022-11-04T00:33:22.784Z,8.87
2022-11-04T00:37:22.980Z,8.70
2022-11-04T00:41:30.485Z,9.67
2022-11-04T00:45:34.081Z,10.00
2022-11-04T00:49:34.191Z,9.93
2022-11-04T00:53:34.287Z,9.77
2022-11-04T00:57:34.826Z,10.80
2022-11-04T01:01:37.585Z,10.73
2022-11-04T01:05:40.693Z,10.80
2022-11-04T01:09:41.039Z,11.50
2022-11-04T01:13:42.674Z,11.07
2022-11-04T01:17:45.349Z,10.70
2022-11-04T01:21:45.542Z,11.13
2022-11-04T01:25:45.713Z,10.90
2022-11-04T01:29:46.175Z,11.37
2022-11-04T01:33:48.867Z,10.87
2022-11-04T01:37:49.073Z,10.03
2022-11-04T01:41:49.171Z,9.50
2022-11-04T01:45:55.567Z,8.20
2022-11-04T01:50:04.808Z,7.77
2022-11-04T01:54:07.569Z,7.30
2022-11-04T01:58:13.830Z,6.80
2022-11-04T02:02:14.056Z,6.73
2022-11-04T02:06:19.918Z,6.83
2022-11-04T02:10:23.344Z,5.97
2022-11-04T02:14:23.541Z,6.03
2022-11-04T02:18:50.648Z,5.77
2022-11-04T02:23:44.197Z,6.00
2022-11-04T02:28:14.717Z,5.70
2022-11-04T02:32:30.343Z,5.40
2022-11-04T02:36:42.937Z,4.80
2022-11-04T02:40:52.158Z,5.13
2022-11-04T02:45:02.805Z,4.97
2022-11-04T02:49:15.955Z,4.50
2022-11-04T02:53:23.477Z,4.20
2022-11-04T02:57:31.480Z,4.10
2022-11-04T03:01:39.306Z,3.43
2022-11-04T03:05:47.336Z,4.10
2022-11-04T03:09:54.665Z,2.80
2022-11-04T03:14:03.532Z,2.83
2022-11-04T03:18:18.288Z,2.80
2022-11-04T03:22:25.121Z,2.67
2022-11-04T03:26:33.702Z,2.60
2022-11-04T03:30:41.900Z,2.40
2022-11-04T03:34:42.534Z,2.50
2022-11-04T03:38:45.652Z,2.27
2022-11-04T03:42:53.422Z,2.70
2022-11-04T03:46:55.361Z,2.80
2022-11-04T03:50:55.507Z,2.80
2022-11-04T03:54:58.289Z,1.90
2022-11-04T03:59:18.921Z,2.00
2022-11-04T04:03:28.438Z,2.23
2022-11-04T04:07:37.042Z,2.00
2022-11-04T04:11:51.030Z,1.87
2022-11-04T04:15:59.704Z,2.10
2022-11-04T04:20:04.944Z,2.00
2022-11-04T04:24:23.699Z,1.90
2022-11-04T04:28:27.150Z,2.03
2022-11-04T04:32:33.038Z,1.73
2022-11-04T04:36:42.243Z,1.63
2022-11-04T04:40:55.333Z,1.43
2022-11-04T04:45:06.141Z,1.60
2022-11-04T04:49:10.384Z,1.83
2022-11-04T04:53:11.343Z,2.10
2022-11-04T04:57:11.844Z,1.63
2022-11-04T05:01:14.931Z,1.70
2022-11-04T05:05:16.667Z,1.80
2022-11-04T05:09:16.895Z,1.73
2022-11-04T05:13:30.183Z,2.63
2022-11-04T05:17:33.032Z,2.70
2022-11-04T05:21:33.235Z,2.00
2022-11-04T05:25:33.461Z,2.50
2022-11-04T05:29:33.672Z,2.70
2022-11-04T05:33:36.765Z,2.20
2022-11-04T05:37:36.879Z,2.20
2022-11-04T05:41:37.450Z,2.00
2022-11-04T05:45:37.533Z,1.90
2022-11-04T05:49:40.268Z,2.03
2022-11-04T05:53:40.382Z,3.20
2022-11-04T05:57:40.544Z,2.00
2022-11-04T06:01:44.295Z,2.50
2022-11-04T06:05:47.045Z,2.60
2022-11-04T06:09:47.121Z,2.30
2022-11-04T06:13:47.229Z,2.03
2022-11-04T06:17:47.515Z,1.83
2022-11-04T06:21:50.407Z,2.13
2022-11-04T06:25:50.533Z,2.00
2022-11-04T06:29:50.720Z,2.30
2022-11-04T06:33:52.121Z,2.10
2022-11-04T06:37:54.739Z,2.23
2022-11-04T06:41:56.668Z,2.97
2022-11-04T06:46:01.922Z,2.73
2022-11-04T06:50:02.061Z,2.10
2022-11-04T06:54:04.739Z,2.07
2022-11-04T06:58:04.991Z,2.00
2022-11-04T07:02:05.180Z,2.10
2022-11-04T07:06:10.613Z,2.30
2022-11-04T07:10:14.095Z,2.60
2022-11-04T07:14:15.101Z,2.60
2022-11-04T07:18:15.255Z,2.10
2022-11-04T07:22:15.376Z,2.53
2022-11-04T07:26:18.376Z,2.30
2022-11-04T07:30:20.353Z,2.30
2022-11-04T07:34:28.817Z,2.47
2022-11-04T07:38:29.028Z,2.60
2022-11-04T07:42:32.130Z,2.40
2022-11-04T07:46:39.019Z,2.40
2022-11-04T07:50:42.952Z,2.27
2022-11-04T07:54:43.170Z,2.57
2022-11-04T07:58:46.295Z,2.23
2022-11-04T08:02:47.337Z,2.00
2022-11-04T08:06:50.414Z,2.30
2022-11-04T08:10:57.160Z,2.33
2022-11-04T08:14:59.907Z,2.50
2022-11-04T08:19:01.931Z,2.60
2022-11-04T08:23:02.091Z,2.30
2022-11-04T08:27:02.309Z,2.60
2022-11-04T08:31:09.126Z,2.60
2022-11-04T08:35:12.096Z,2.40
2022-11-04T08:39:13.725Z,2.07
2022-11-04T08:43:14.343Z,1.97
2022-11-04T08:47:17.070Z,1.60
2022-11-04T08:51:21.675Z,1.70
2022-11-04T08:55:24.772Z,1.50
2022-11-04T08:59:27.804Z,2.10
2022-11-04T09:03:30.557Z,2.43
2022-11-04T09:07:30.817Z,1.90
2022-11-04T09:11:31.409Z,2.10
2022-11-04T09:15:31.545Z,3.30
2022-11-04T09:19:34.380Z,2.13
2022-11-04T09:23:34.900Z,2.10
2022-11-04T09:27:35.130Z,2.27
2022-11-04T09:31:35.314Z,2.53
2022-11-04T09:35:38.403Z,2.57
2022-11-04T09:39:38.553Z,2.17
2022-11-04T09:43:56.376Z,2.27
2022-11-04T09:48:02.608Z,2.50
2022-11-04T09:52:15.727Z,1.90
2022-11-04T09:56:23.915Z,1.90
2022-11-04T10:00:24.980Z,1.80
2022-11-04T10:04:42.231Z,2.00
2022-11-04T10:09:03.145Z,1.77
2022-11-04T10:13:23.523Z,1.80
2022-11-04T10:17:51.211Z,2.23
2022-11-04T10:22:07.513Z,2.30
2022-11-04T10:26:20.783Z,3.37
2022-11-04T10:30:25.034Z,3.67
2022-11-04T10:34:37.911Z,1.93
2022-11-04T10:38:44.008Z,2.00
2022-11-04T10:42:47.145Z,2.27
2022-11-04T10:47:02.296Z,2.13
2022-11-04T10:51:03.223Z,2.33
2022-11-04T10:55:03.493Z,2.23
2022-11-04T10:59:26.085Z,2.27
2022-11-04T11:03:34.463Z,2.70
2022-11-04T11:07:40.058Z,2.30
2022-11-04T11:11:48.140Z,2.73
2022-11-04T11:15:51.147Z,2.50
2022-11-04T11:20:00.788Z,2.10
2022-11-04T11:24:20.906Z,1.93
2022-11-04T11:28:27.960Z,2.30
2022-11-04T11:32:43.392Z,2.20
2022-11-04T11:36:48.193Z,2.33
2022-11-04T11:41:18.679Z,2.20
2022-11-04T11:45:20.088Z,2.10
2022-11-04T11:49:31.296Z,2.33
2022-11-04T11:53:35.619Z,2.37
2022-11-04T12:02:31.522Z,1.83
2022-11-04T12:11:30.625Z,1.60
2022-11-04T12:15:48.064Z,1.73
2022-11-04T12:20:10.164Z,1.73
2022-11-04T12:24:32.962Z,2.13
2022-11-04T12:28:49.792Z,2.57
2022-11-04T12:33:13.202Z,1.80
2022-11-04T12:37:31.441Z,1.87
2022-11-04T12:42:18.949Z,1.70
2022-11-04T12:46:20.783Z,2.63
2022-11-04T12:50:49.885Z,2.10
2022-11-04T12:55:09.043Z,2.40
2022-11-04T12:59:52.180Z,2.50
2022-11-04T13:04:00.848Z,2.53
2022-11-04T13:08:14.622Z,2.70
2022-11-04T13:12:39.219Z,3.00
2022-11-04T13:16:46.811Z,2.63
2022-11-04T13:21:02.124Z,2.67
2022-11-04T13:25:11.176Z,3.90
2022-11-04T13:29:21.393Z,6.97
2022-11-04T13:33:38.823Z,2.13
2022-11-04T13:37:47.402Z,2.70
2022-11-04T13:42:39.845Z,3.60
2022-11-04T13:46:40.109Z,2.33
2022-11-04T13:50:43.771Z,2.87
2022-11-04T13:54:48.559Z,2.40
2022-11-04T13:58:56.028Z,2.50
2022-11-04T14:02:58.841Z,2.80
2022-11-04T14:07:05.094Z,2.60
2022-11-04T14:11:14.786Z,2.43
2022-11-04T14:20:01.763Z,3.20
2022-11-04T14:24:16.776Z,3.10
2022-11-04T14:28:31.153Z,2.77
2022-11-04T14:32:42.974Z,2.70
2022-11-04T14:36:44.696Z,2.80
2022-11-04T14:40:54.978Z,2.60
2022-11-04T14:44:55.323Z,2.40
2022-11-04T14:49:01.877Z,2.30
2022-11-04T14:53:07.355Z,3.10
2022-11-04T14:57:18.000Z,3.03
2022-11-04T15:01:19.843Z,3.20
2022-11-04T15:05:29.698Z,3.53
2022-11-04T15:09:35.222Z,3.33
2022-11-04T15:13:47.781Z,3.97
2022-11-04T15:17:47.947Z,4.10
2022-11-04T15:21:51.510Z,3.50
2022-11-04T15:25:52.847Z,5.03
2022-11-04T15:30:08.165Z,8.60
2022-11-04T15:34:14.466Z,5.53
2022-11-04T15:38:18.187Z,4.90
2022-11-04T15:42:48.730Z,4.23
2022-11-04T15:46:59.043Z,4.13
2022-11-04T15:51:15.660Z,3.40
2022-11-04T15:55:25.442Z,3.90
2022-11-04T15:59:31.031Z,4.47
2022-11-04T16:03:34.081Z,5.13
2022-11-04T16:07:40.523Z,5.37
2022-11-04T16:11:41.152Z,4.50
2022-11-04T16:15:45.726Z,4.20
2022-11-04T16:19:54.874Z,4.17
2022-11-04T16:24:01.618Z,4.00
2022-11-04T16:28:02.098Z,4.90
2022-11-04T16:32:19.844Z,5.67
2022-11-04T16:36:30.922Z,7.23
2022-11-04T16:40:36.969Z,8.23
2022-11-04T16:44:37.130Z,10.67
2022-11-04T16:48:37.162Z,10.87
2022-11-04T16:52:44.064Z,10.27
2022-11-04T16:56:45.499Z,11.00
2022-11-04T17:00:45.739Z,10.03
2022-11-04T17:04:46.759Z,10.90
2022-11-04T17:08:49.943Z,13.93
2022-11-04T17:12:50.500Z,15.20
2022-11-04T17:16:50.608Z,12.17
2022-11-04T17:20:57.149Z,10.53
2022-11-04T17:24:59.869Z,8.47
2022-11-04T17:29:00.364Z,7.47
2022-11-04T17:33:00.600Z,6.90
2022-11-04T17:37:00.686Z,11.83
2022-11-04T17:41:15.928Z,10.03
2022-11-04T17:45:16.001Z,10.40
2022-11-04T17:49:19.009Z,13.37
2022-11-04T17:53:19.084Z,14.37
2022-11-04T17:57:22.317Z,15.13
2022-11-04T18:01:26.069Z,13.77
2022-11-04T18:05:26.212Z,8.67
2022-11-04T18:09:26.423Z,20.57
2022-11-04T18:13:29.335Z,18.70
2022-11-04T18:17:29.411Z,15.10
2022-11-04T18:21:31.075Z,15.53
2022-11-04T18:25:31.163Z,14.27
2022-11-04T18:29:33.799Z,13.03
2022-11-04T18:33:33.871Z,11.97
2022-11-04T18:37:33.900Z,11.30
2022-11-04T18:41:33.981Z,14.17
2022-11-04T18:45:36.655Z,13.60
2022-11-04T18:49:36.772Z,10.90
2022-11-04T18:53:36.882Z,11.80
2022-11-04T18:57:37.817Z,9.37
2022-11-04T19:01:40.975Z,7.57
2022-11-04T19:05:44.517Z,9.90
2022-11-04T19:09:47.528Z,10.10
2022-11-04T19:13:54.420Z,10.50
2022-11-04T19:17:57.152Z,9.23
2022-11-04T19:21:57.202Z,7.93
2022-11-04T19:26:02.002Z,7.23
2022-11-04T19:30:02.440Z,6.70
2022-11-04T19:34:07.398Z,7.30
2022-11-04T19:38:07.725Z,6.43
2022-11-04T19:42:21.050Z,6.13
2022-11-04T19:46:21.096Z,6.40
2022-11-04T19:50:23.991Z,6.50
2022-11-04T19:54:24.111Z,6.00
2022-11-04T19:58:25.237Z,6.70
2022-11-04T20:02:25.452Z,6.30
2022-11-04T20:06:28.356Z,7.50
2022-11-04T20:10:28.685Z,11.40
2022-11-04T20:14:31.092Z,11.47
2022-11-04T20:18:31.410Z,17.13
2022-11-04T20:22:34.201Z,15.40
2022-11-04T20:26:36.167Z,13.93
2022-11-04T20:30:40.115Z,13.30
2022-11-04T20:34:40.363Z,12.40
2022-11-04T20:38:43.099Z,12.60
2022-11-04T20:42:47.902Z,13.30
2022-11-04T20:46:48.301Z,13.10
2022-11-04T20:50:48.496Z,13.70
2022-11-04T20:54:51.170Z,12.53
2022-11-04T20:58:56.003Z,13.90
2022-11-04T21:02:58.791Z,14.10
2022-11-04T21:06:58.878Z,15.87
2022-11-04T21:11:01.712Z,15.00
2022-11-04T21:15:01.807Z,17.20
2022-11-04T21:19:02.188Z,20.83
2022-11-04T21:23:02.273Z,15.93
2022-11-04T21:27:05.314Z,17.80
2022-11-04T21:31:09.536Z,17.70
2022-11-04T21:35:10.746Z,20.57
2022-11-04T21:39:12.918Z,21.13
2022-11-04T21:43:16.285Z,17.63
2022-11-04T21:47:16.697Z,14.63
2022-11-04T21:51:20.342Z,13.67
2022-11-04T21:55:20.482Z,13.83
2022-11-04T21:59:24.144Z,8.40
2022-11-04T22:03:24.216Z,7.53
2022-11-04T22:07:40.179Z,8.60
2022-11-04T22:11:40.319Z,9.17
2022-11-04T22:15:55.647Z,8.37
2022-11-04T22:19:55.776Z,8.77
2022-11-04T22:23:56.267Z,9.00
2022-11-04T22:27:56.540Z,7.90
2022-11-04T22:31:59.491Z,7.50
2022-11-04T22:35:59.585Z,8.00
2022-11-04T22:39:59.685Z,8.60
2022-11-04T22:44:00.138Z,8.60
2022-11-04T22:48:02.832Z,8.23
2022-11-04T22:52:02.884Z,11.23
2022-11-04T22:56:05.150Z,6.77
2022-11-04T23:00:06.037Z,6.77
2022-11-04T23:04:12.229Z,6.20
2022-11-04T23:08:12.399Z,6.50
2022-11-04T23:12:25.421Z,7.70
2022-11-04T23:16:39.683Z,5.87
2022-11-04T23:20:42.651Z,7.40
2022-11-04T23:24:55.248Z,5.23
2022-11-04T23:29:07.816Z,5.33
2022-11-04T23:33:12.531Z,5.10
2022-11-04T23:37:14.064Z,5.00
2022-11-04T23:41:26.653Z,5.47
2022-11-04T23:45:40.192Z,10.10
2022-11-04T23:49:52.722Z,5.60
2022-11-04T23:54:07.859Z,5.40
2022-11-04T23:58:20.376Z,5.70
